Time;durP1;ratioP1;P1;durP2;ratioP2;P2;SDS_P1;SDS_P2;PMS_P1;PMS_P2;Temp;Humidity;BMP_temperature;BMP_pressure;BME280_temperature;BME280_humidity;BME280_pressure;Samples;Min_cycle;Max_cycle;Signal;HPM_P1;HPM_P2
2021/07/25 00:01:30;;;;;;;20.48;12.02;;;24.60;99.10;;;;;;4824908;29;20039;-76
2021/07/25 00:03:57;;;;;;;18.33;11.63;;;24.70;99.00;;;;;;4832854;29;20087;-76
2021/07/25 00:06:22;;;;;;;16.67;11.90;;;24.70;99.20;;;;;;4830799;29;20489;-76
2021/07/25 00:08:48;;;;;;;18.35;11.93;;;24.70;99.20;;;;;;4836024;29;20106;-76
2021/07/25 00:11:15;;;;;;;17.67;11.98;;;24.60;99.10;;;;;;4835415;29;20477;-76
2021/07/25 00:13:42;;;;;;;19.65;12.35;;;24.70;99.00;;;;;;4839439;29;20046;-76
2021/07/25 00:16:08;;;;;;;14.88;12.02;;;24.70;98.90;;;;;;4838131;29;20041;-76
2021/07/25 00:18:34;;;;;;;19.58;13.00;;;24.80;98.90;;;;;;4838432;29;20077;-76
2021/07/25 00:21:00;;;;;;;14.95;12.10;;;24.80;98.80;;;;;;4839692;29;20038;-76
2021/07/25 00:23:27;;;;;;;17.65;12.73;;;24.70;98.90;;;;;;4842119;29;20095;-76
2021/07/25 00:25:56;;;;;;;15.88;11.93;;;24.70;99.00;;;;;;4824481;29;20037;-76
2021/07/25 00:28:32;;;;;;;17.15;12.30;;;24.70;99.10;;;;;;4840376;29;20030;-76
2021/07/25 00:31:00;;;;;;;15.57;12.07;;;24.60;99.20;;;;;;4833491;29;20125;-76
2021/07/25 00:33:26;;;;;;;16.77;13.18;;;24.60;99.20;;;;;;4837370;29;20038;-76
2021/07/25 00:35:53;;;;;;;17.15;11.95;;;24.70;99.00;;;;;;4838143;29;20408;-76
2021/07/25 00:38:19;;;;;;;16.45;12.18;;;24.70;99.00;;;;;;4839202;29;20041;-76
2021/07/25 00:40:45;;;;;;;19.45;12.38;;;24.70;99.10;;;;;;4832730;29;20050;-76
2021/07/25 00:43:24;;;;;;;16.52;12.25;;;24.70;99.10;;;;;;4828836;29;20186;-76
2021/07/25 00:45:50;;;;;;;18.48;12.85;;;24.60;99.30;;;;;;4827467;29;20062;-76
2021/07/25 00:48:17;;;;;;;15.05;11.43;;;24.40;99.40;;;;;;4822277;29;20043;-76
2021/07/25 00:50:43;;;;;;;16.88;11.60;;;24.50;99.40;;;;;;4814514;29;20164;-76
2021/07/25 00:53:09;;;;;;;19.58;11.95;;;24.50;99.30;;;;;;4820748;29;20875;-76
2021/07/25 00:55:35;;;;;;;16.15;11.77;;;24.50;99.30;;;;;;4820917;29;20046;-76
2021/07/25 00:58:01;;;;;;;16.65;12.50;;;24.50;99.30;;;;;;4822340;29;20038;-76
2021/07/25 01:00:27;;;;;;;17.70;11.77;;;24.50;99.20;;;;;;4821292;29;20521;-76
2021/07/25 01:03:28;;;;;;;15.85;11.27;;;24.50;99.30;;;;;;4813770;29;20095;-76
2021/07/25 01:06:12;;;;;;;17.63;12.32;;;24.40;99.40;;;;;;4804225;29;20125;-75
2021/07/25 01:08:53;;;;;;;15.90;11.80;;;24.30;99.50;;;;;;4818025;29;20061;-76
2021/07/25 01:11:19;;;;;;;15.50;11.90;;;24.30;99.70;;;;;;4818722;29;20044;-76
2021/07/25 01:13:49;;;;;;;17.27;11.82;;;24.20;99.90;;;;;;4817880;29;20039;-76
2021/07/25 01:16:15;;;;;;;19.65;12.43;;;24.10;99.90;;;;;;4820101;29;20046;-76
2021/07/25 01:18:48;;;;;;;18.38;12.45;;;24.00;99.90;;;;;;4820371;29;20088;-77
2021/07/25 01:21:18;;;;;;;18.05;12.50;;;23.80;99.90;;;;;;4821394;29;20046;-77
2021/07/25 01:23:46;;;;;;;16.83;12.20;;;23.80;99.90;;;;;;4822531;29;20098;-77
2021/07/25 01:26:14;;;;;;;17.35;12.80;;;23.80;99.90;;;;;;4821226;29;20039;-77
2021/07/25 01:28:46;;;;;;;16.58;12.32;;;23.80;99.90;;;;;;4822007;29;20127;-76
2021/07/25 01:31:27;;;;;;;14.43;12.30;;;23.80;99.90;;;;;;4821479;29;20061;-76
2021/07/25 01:33:54;;;;;;;14.98;12.20;;;23.80;99.90;;;;;;4822158;29;20042;-76
2021/07/25 01:36:20;;;;;;;20.95;12.20;;;23.80;99.90;;;;;;4819583;29;20038;-76
2021/07/25 01:38:46;;;;;;;16.15;12.18;;;23.80;99.90;;;;;;4819370;29;20046;-76
2021/07/25 01:41:15;;;;;;;16.17;11.13;;;23.80;99.90;;;;;;4820405;29;20520;-76
2021/07/25 01:43:42;;;;;;;17.00;12.80;;;23.80;99.90;;;;;;4820813;29;20034;-76
2021/07/25 01:46:09;;;;;;;16.23;11.73;;;23.90;99.90;;;;;;4820804;29;20873;-76
2021/07/25 01:48:38;;;;;;;20.92;12.55;;;23.90;99.90;;;;;;4823357;29;20034;-76
2021/07/25 01:51:05;;;;;;;17.73;12.02;;;24.00;99.90;;;;;;4824004;29;20054;-76
2021/07/25 01:53:34;;;;;;;16.17;11.68;;;23.90;99.90;;;;;;4838376;29;20099;-77
2021/07/25 01:55:59;;;;;;;21.73;12.55;;;23.90;99.90;;;;;;4824693;29;20038;-76
2021/07/25 01:58:26;;;;;;;16.60;12.13;;;23.80;99.90;;;;;;4831982;29;20049;-76
2021/07/25 02:00:51;;;;;;;13.68;11.38;;;23.80;99.90;;;;;;4826812;29;20402;-76
2021/07/25 02:03:28;;;;;;;13.93;11.68;;;23.70;99.90;;;;;;4826212;29;20045;-76
2021/07/25 02:05:54;;;;;;;15.77;12.70;;;23.50;99.90;;;;;;4826393;29;20049;-76
2021/07/25 02:08:20;;;;;;;14.43;12.15;;;23.40;99.90;;;;;;4826144;29;20034;-76
2021/07/25 02:10:48;;;;;;;18.38;12.27;;;23.50;99.90;;;;;;4810999;29;20043;-77
2021/07/25 02:13:14;;;;;;;15.93;13.10;;;23.40;99.90;;;;;;4819364;29;20042;-76
2021/07/25 02:15:41;;;;;;;16.75;12.63;;;23.20;99.90;;;;;;4837609;29;20104;-76
2021/07/25 02:18:07;;;;;;;19.15;12.40;;;23.20;99.90;;;;;;4830505;29;20038;-76
2021/07/25 02:20:33;;;;;;;17.77;12.27;;;23.00;99.90;;;;;;4806307;29;20050;-76
2021/07/25 02:22:59;;;;;;;18.45;12.00;;;23.00;99.90;;;;;;4817578;29;20505;-76
2021/07/25 02:25:24;;;;;;;16.27;11.18;;;23.10;99.90;;;;;;4831853;29;20034;-77
2021/07/25 02:27:50;;;;;;;15.23;11.43;;;23.00;99.90;;;;;;4821039;29;20118;-77
2021/07/25 02:30:15;;;;;;;15.40;11.23;;;22.70;99.90;;;;;;4819936;29;20506;-76
2021/07/25 02:32:41;;;;;;;17.13;11.90;;;22.60;99.90;;;;;;4808813;29;20077;-76
2021/07/25 02:35:07;;;;;;;17.88;11.32;;;22.70;99.90;;;;;;4810919;29;20057;-80
2021/07/25 02:37:33;;;;;;;16.55;11.05;;;22.90;99.90;;;;;;4837413;29;20030;-76
2021/07/25 02:39:59;;;;;;;15.45;11.90;;;22.90;99.90;;;;;;4829629;29;20050;-76
2021/07/25 02:42:25;;;;;;;14.13;11.32;;;23.00;99.90;;;;;;4824809;29;20438;-76
2021/07/25 02:44:50;;;;;;;17.98;12.70;;;23.00;99.90;;;;;;4827262;29;20497;-76
2021/07/25 02:47:16;;;;;;;15.38;11.95;;;23.10;99.90;;;;;;4842955;29;20121;-77
2021/07/25 02:49:42;;;;;;;15.40;11.63;;;23.10;99.90;;;;;;4824202;29;20053;-76
2021/07/25 02:52:07;;;;;;;17.23;12.25;;;23.00;99.90;;;;;;4842115;29;20552;-76
2021/07/25 02:54:33;;;;;;;18.52;12.30;;;22.90;99.90;;;;;;4840281;29;20512;-76
2021/07/25 02:56:59;;;;;;;15.40;12.18;;;22.70;99.90;;;;;;4841647;29;20044;-76
2021/07/25 02:59:24;;;;;;;16.80;12.23;;;22.50;99.90;;;;;;4841437;29;20122;-76
2021/07/25 03:01:50;;;;;;;15.65;11.63;;;22.40;99.90;;;;;;4835010;29;20398;-77
2021/07/25 03:04:17;;;;;;;16.13;12.43;;;22.50;99.90;;;;;;4831414;29;20494;-76
2021/07/25 03:06:42;;;;;;;16.67;11.35;;;22.50;99.90;;;;;;4836180;29;20546;-82
2021/07/25 03:09:08;;;;;;;19.15;12.77;;;22.20;99.90;;;;;;4834314;29;20073;-76
2021/07/25 03:11:34;;;;;;;16.65;12.35;;;22.10;99.90;;;;;;4834696;29;20050;-76
2021/07/25 03:14:00;;;;;;;15.65;12.60;;;22.20;99.90;;;;;;4822490;29;20046;-78
2021/07/25 03:16:26;;;;;;;16.90;13.30;;;22.20;99.90;;;;;;4827511;29;20041;-77
2021/07/25 03:18:51;;;;;;;24.90;12.63;;;22.20;99.90;;;;;;4834995;29;20091;-78
2021/07/25 03:21:17;;;;;;;17.02;12.65;;;22.30;99.90;;;;;;4834736;29;20509;-81
2021/07/25 03:23:43;;;;;;;17.70;12.07;;;22.30;99.90;;;;;;4835647;29;20042;-77
2021/07/25 03:26:09;;;;;;;16.55;13.25;;;22.20;99.90;;;;;;4831884;29;20102;-77
2021/07/25 03:28:35;;;;;;;17.05;12.38;;;22.30;99.90;;;;;;4833093;29;20441;-77
2021/07/25 03:31:01;;;;;;;18.08;12.32;;;22.00;99.90;;;;;;4830173;29;20053;-77
2021/07/25 03:33:26;;;;;;;16.30;12.48;;;21.90;99.90;;;;;;4828836;29;20042;-77
2021/07/25 03:35:52;;;;;;;18.77;12.73;;;22.00;99.90;;;;;;4830110;29;20057;-76
2021/07/25 03:38:18;;;;;;;16.35;12.10;;;22.10;99.90;;;;;;4833475;29;20038;-78
2021/07/25 03:40:45;;;;;;;17.88;13.55;;;22.10;99.90;;;;;;4836133;29;20521;-76
2021/07/25 03:43:12;;;;;;;16.77;12.55;;;22.10;99.90;;;;;;4834020;29;20061;-77
2021/07/25 03:45:47;;;;;;;17.88;12.50;;;22.10;99.90;;;;;;4829335;29;20312;-76
2021/07/25 03:48:14;;;;;;;16.08;11.52;;;22.20;99.90;;;;;;4833292;29;20058;-77
2021/07/25 03:50:41;;;;;;;18.35;13.15;;;22.10;99.90;;;;;;4811324;29;20039;-77
2021/07/25 03:53:08;;;;;;;18.70;13.25;;;22.10;99.90;;;;;;4817535;29;20147;-76
2021/07/25 03:55:35;;;;;;;17.48;12.95;;;22.10;99.90;;;;;;4834795;29;20030;-77
2021/07/25 03:58:02;;;;;;;16.08;12.45;;;22.20;99.90;;;;;;4834453;29;20034;-77
2021/07/25 04:00:28;;;;;;;17.00;12.50;;;22.30;99.90;;;;;;4831656;29;20042;-77
2021/07/25 04:02:53;;;;;;;16.20;11.50;;;22.30;99.90;;;;;;4835247;29;20532;-77
2021/07/25 04:05:19;;;;;;;17.23;14.00;;;22.40;99.90;;;;;;4825205;29;20065;-77
2021/07/25 04:07:45;;;;;;;16.77;12.52;;;22.10;99.90;;;;;;4825471;29;20059;-77
2021/07/25 04:10:11;;;;;;;18.00;13.20;;;22.10;99.90;;;;;;4836138;29;20482;-77
2021/07/25 04:12:36;;;;;;;15.85;12.30;;;22.10;99.90;;;;;;4834715;29;20046;-77
2021/07/25 04:15:05;;;;;;;19.60;13.93;;;22.20;99.90;;;;;;4834240;29;20513;-78
2021/07/25 04:17:34;;;;;;;18.10;13.98;;;22.40;99.90;;;;;;4819737;29;20615;-79
2021/07/25 04:20:00;;;;;;;15.13;11.85;;;22.50;99.90;;;;;;4825631;29;20049;-77
2021/07/25 04:22:30;;;;;;;15.70;12.60;;;22.50;99.90;;;;;;4801058;29;20359;-78
2021/07/25 04:24:56;;;;;;;17.10;12.65;;;22.60;99.90;;;;;;4826397;29;20038;-77
2021/07/25 04:27:22;;;;;;;18.42;12.68;;;22.50;99.90;;;;;;4832012;29;20044;-76
2021/07/25 04:29:48;;;;;;;17.45;13.27;;;22.50;99.90;;;;;;4832185;29;20038;-77
2021/07/25 04:32:14;;;;;;;17.63;13.35;;;22.50;99.90;;;;;;4830119;29;20041;-76
2021/07/25 04:34:40;;;;;;;19.65;14.32;;;22.40;99.90;;;;;;4834611;29;20034;-77
2021/07/25 04:37:11;;;;;;;18.08;12.43;;;22.20;99.90;;;;;;4832526;29;20038;-77
2021/07/25 04:39:36;;;;;;;16.67;12.82;;;22.10;99.90;;;;;;4832866;29;20049;-77
2021/07/25 04:42:03;;;;;;;18.83;12.77;;;22.00;99.90;;;;;;4834038;29;20390;-77
2021/07/25 04:44:42;;;;;;;17.10;12.30;;;21.90;99.90;;;;;;4834350;29;20042;-78
2021/07/25 04:47:12;;;;;;;16.20;12.35;;;21.90;99.90;;;;;;4834164;29;20096;-77
2021/07/25 04:49:53;;;;;;;15.65;12.45;;;21.90;99.90;;;;;;4831750;29;20058;-77
2021/07/25 04:52:21;;;;;;;18.85;13.18;;;21.90;99.90;;;;;;4831718;29;20053;-78
2021/07/25 04:54:48;;;;;;;15.60;12.43;;;22.00;99.90;;;;;;4832982;29;20045;-77
2021/07/25 04:57:17;;;;;;;15.93;12.13;;;22.00;99.90;;;;;;4833391;29;20034;-78
2021/07/25 04:59:48;;;;;;;15.15;13.07;;;22.10;99.90;;;;;;4835051;29;20113;-78
2021/07/25 05:02:16;;;;;;;17.15;13.05;;;22.10;99.90;;;;;;4834395;29;20110;-77
2021/07/25 05:04:43;;;;;;;16.25;11.90;;;22.20;99.90;;;;;;4833712;29;20442;-76
2021/07/25 05:07:11;;;;;;;15.18;11.65;;;22.20;99.90;;;;;;4833350;29;20125;-77
2021/07/25 05:09:38;;;;;;;14.65;12.25;;;22.20;99.90;;;;;;4833102;29;20041;-78
2021/07/25 05:12:13;;;;;;;16.20;13.23;;;22.10;99.90;;;;;;4832629;29;20128;-77
2021/07/25 05:15:02;;;;;;;17.95;12.18;;;22.10;99.90;;;;;;4833463;29;20053;-77
2021/07/25 05:17:39;;;;;;;20.33;11.70;;;21.90;99.90;;;;;;4817618;29;20045;-77
2021/07/25 05:20:14;;;;;;;15.70;12.30;;;22.00;99.90;;;;;;4835024;29;20125;-82
2021/07/25 05:23:24;;;;;;;16.02;12.55;;;22.10;99.90;;;;;;4829533;29;20049;-77
2021/07/25 05:25:53;;;;;;;16.35;13.10;;;21.90;99.90;;;;;;4783715;29;20108;-77
2021/07/25 05:28:20;;;;;;;17.38;13.10;;;21.90;99.90;;;;;;4822405;29;20035;-78
2021/07/25 05:30:56;;;;;;;18.20;13.27;;;22.10;99.90;;;;;;4825670;29;20394;-80
2021/07/25 05:33:23;;;;;;;16.05;12.30;;;22.20;99.90;;;;;;4830831;29;20061;-77
2021/07/25 05:35:49;;;;;;;16.23;13.40;;;22.30;99.90;;;;;;4830047;29;20061;-76
2021/07/25 05:38:19;;;;;;;18.23;12.80;;;22.30;99.90;;;;;;4833464;29;20041;-76
2021/07/25 05:40:45;;;;;;;18.13;12.93;;;22.10;99.90;;;;;;4832145;29;20053;-77
2021/07/25 05:43:11;;;;;;;14.73;11.73;;;22.20;99.90;;;;;;4817204;29;20041;-77
2021/07/25 05:45:37;;;;;;;17.35;13.27;;;22.10;99.90;;;;;;4827087;29;20693;-77
2021/07/25 05:48:04;;;;;;;16.88;12.40;;;22.10;99.90;;;;;;4816899;29;20043;-77
2021/07/25 05:50:29;;;;;;;18.80;13.23;;;22.10;99.90;;;;;;4829455;29;20507;-82
2021/07/25 05:52:57;;;;;;;18.23;13.77;;;22.10;99.90;;;;;;4832863;29;20113;-82
2021/07/25 05:55:25;;;;;;;16.77;12.27;;;22.20;99.90;;;;;;4829359;29;20042;-76
2021/07/25 05:57:51;;;;;;;16.13;12.85;;;22.30;99.90;;;;;;4821677;29;20061;-77
2021/07/25 06:00:17;;;;;;;16.45;12.90;;;22.30;99.90;;;;;;4834507;29;20494;-78
2021/07/25 06:03:00;;;;;;;17.98;12.60;;;22.30;99.90;;;;;;4826509;29;20042;-76
2021/07/25 06:05:36;;;;;;;16.23;11.30;;;22.50;99.90;;;;;;4832539;29;20053;-77
2021/07/25 06:08:05;;;;;;;19.52;13.52;;;22.60;99.90;;;;;;4834110;29;20038;-77
2021/07/25 06:10:31;;;;;;;18.48;12.65;;;22.70;99.90;;;;;;4834383;29;20041;-77
2021/07/25 06:12:59;;;;;;;19.73;13.30;;;22.80;99.90;;;;;;4830948;29;20049;-77
2021/07/25 06:15:27;;;;;;;16.60;12.50;;;22.90;99.90;;;;;;4830597;29;20520;-77
2021/07/25 06:17:52;;;;;;;15.88;12.02;;;23.00;99.90;;;;;;4835210;29;20045;-77
2021/07/25 06:20:18;;;;;;;17.60;12.18;;;23.00;99.90;;;;;;4837554;29;20054;-77
2021/07/25 06:22:50;;;;;;;16.60;12.88;;;23.00;99.90;;;;;;4835243;29;20460;-77
2021/07/25 06:25:21;;;;;;;15.63;12.80;;;23.20;99.90;;;;;;4834180;29;20069;-78
2021/07/25 06:27:55;;;;;;;14.48;11.80;;;23.20;99.90;;;;;;4829088;29;20026;-81
2021/07/25 06:30:23;;;;;;;15.20;11.90;;;23.30;99.90;;;;;;4836596;29;20037;-77
2021/07/25 06:32:55;;;;;;;16.08;11.85;;;23.20;99.90;;;;;;4829395;29;20533;-77
2021/07/25 06:35:22;;;;;;;17.75;12.95;;;23.30;99.90;;;;;;4834504;29;20046;-77
2021/07/25 06:37:47;;;;;;;15.45;12.80;;;23.40;99.90;;;;;;4831857;29;20065;-77
2021/07/25 06:40:15;;;;;;;17.73;12.75;;;23.50;99.90;;;;;;4826549;29;20084;-83
2021/07/25 06:42:41;;;;;;;20.38;12.48;;;23.40;99.90;;;;;;4834650;29;20041;-77
2021/07/25 06:45:07;;;;;;;19.55;13.45;;;23.40;99.90;;;;;;4827262;29;20050;-76
2021/07/25 06:47:33;;;;;;;15.82;12.65;;;23.40;99.90;;;;;;4820125;29;20169;-78
2021/07/25 06:49:58;;;;;;;15.77;12.23;;;23.40;99.90;;;;;;4833590;29;20117;-76
2021/07/25 06:52:24;;;;;;;16.05;12.73;;;23.30;99.90;;;;;;4832345;29;20045;-78
2021/07/25 06:54:50;;;;;;;15.35;12.88;;;23.40;99.90;;;;;;4847702;29;20159;-77
2021/07/25 06:57:15;;;;;;;19.60;12.07;;;23.70;99.90;;;;;;4843453;29;20050;-82
2021/07/25 06:59:41;;;;;;;16.65;12.80;;;24.00;99.90;;;;;;4814848;29;20050;-79
2021/07/25 07:02:06;;;;;;;16.27;12.07;;;24.20;99.90;;;;;;4828451;29;20092;-78
2021/07/25 07:04:32;;;;;;;15.65;12.15;;;24.50;99.90;;;;;;4823096;29;20646;-82
2021/07/25 07:06:58;;;;;;;15.18;11.63;;;24.70;99.90;;;;;;4818126;29;20061;-80
2021/07/25 07:09:23;;;;;;;14.23;11.45;;;24.90;99.90;;;;;;4832811;29;20052;-78
2021/07/25 07:11:49;;;;;;;22.25;13.40;;;25.10;99.90;;;;;;4835972;29;20065;-78
2021/07/25 07:14:15;;;;;;;14.82;12.35;;;25.10;99.90;;;;;;4833399;29;20053;-79
2021/07/25 07:16:40;;;;;;;14.38;11.32;;;25.40;99.90;;;;;;4833733;29;20086;-78
2021/07/25 07:19:06;;;;;;;13.45;11.48;;;25.80;99.90;;;;;;4821954;29;20054;-80
2021/07/25 07:21:33;;;;;;;16.05;11.65;;;26.10;99.90;;;;;;4833162;29;20041;-78
2021/07/25 07:23:58;;;;;;;17.88;12.05;;;26.00;99.90;;;;;;4831025;29;20042;-77
2021/07/25 07:26:24;;;;;;;18.48;11.88;;;26.00;99.30;;;;;;4824481;29;20046;-78
2021/07/25 07:28:50;;;;;;;14.45;11.02;;;26.10;99.30;;;;;;4836168;29;20665;-78
2021/07/25 07:31:15;;;;;;;17.70;12.57;;;26.40;98.90;;;;;;4826615;29;20065;-78
2021/07/25 07:33:41;;;;;;;16.35;11.65;;;26.00;99.20;;;;;;4832194;29;20034;-78
2021/07/25 07:36:07;;;;;;;15.73;11.77;;;26.00;99.30;;;;;;4829649;29;20121;-78
2021/07/25 07:38:32;;;;;;;14.02;11.77;;;26.20;99.40;;;;;;4829441;29;20088;-76
2021/07/25 07:40:58;;;;;;;12.93;10.60;;;26.80;99.50;;;;;;4826724;29;20479;-79
2021/07/25 07:43:24;;;;;;;15.23;11.32;;;27.90;98.30;;;;;;4830918;29;20050;-79
2021/07/25 07:45:51;;;;;;;12.98;10.30;;;29.30;97.20;;;;;;4828972;29;20050;-78
2021/07/25 07:48:19;;;;;;;13.32;11.07;;;30.10;95.90;;;;;;4826471;29;20034;-77
2021/07/25 07:50:44;;;;;;;16.95;12.45;;;30.30;95.10;;;;;;4833010;29;20030;-77
2021/07/25 07:53:11;;;;;;;16.65;11.65;;;30.20;94.80;;;;;;4823357;29;20490;-77
2021/07/25 07:55:36;;;;;;;15.00;11.52;;;30.80;94.50;;;;;;4822110;29;20034;-78
2021/07/25 07:58:02;;;;;;;14.00;10.18;;;30.70;94.30;;;;;;4810940;29;20055;-78
2021/07/25 08:00:28;;;;;;;12.88;11.25;;;29.80;94.30;;;;;;4823046;29;20586;-78
2021/07/25 08:02:54;;;;;;;14.75;12.00;;;29.10;94.80;;;;;;4834563;29;20042;-79
2021/07/25 08:05:20;;;;;;;14.57;11.32;;;28.20;96.20;;;;;;4833782;29;21787;-78
2021/07/25 08:07:46;;;;;;;13.85;11.75;;;28.90;96.10;;;;;;4834292;29;20033;-81
2021/07/25 08:10:12;;;;;;;13.48;10.35;;;28.20;97.30;;;;;;4833267;29;20070;-78
2021/07/25 08:12:38;;;;;;;13.77;11.77;;;27.60;97.60;;;;;;4835130;29;20042;-77
2021/07/25 08:15:05;;;;;;;15.82;11.23;;;27.40;97.80;;;;;;4835747;29;20441;-78
2021/07/25 08:17:31;;;;;;;15.32;11.95;;;27.30;97.90;;;;;;4818421;29;20631;-78
2021/07/25 08:19:57;;;;;;;17.40;11.63;;;27.60;97.60;;;;;;4833952;29;20608;-79
2021/07/25 08:22:23;;;;;;;16.65;12.20;;;27.60;98.20;;;;;;4835574;29;20037;-80
2021/07/25 08:24:48;;;;;;;16.27;11.95;;;27.40;98.50;;;;;;4826040;29;20046;-78
2021/07/25 08:27:15;;;;;;;14.25;11.27;;;27.20;98.40;;;;;;4835386;29;20510;-83
2021/07/25 08:29:41;;;;;;;14.13;11.63;;;27.10;98.40;;;;;;4833747;29;20556;-78
